Time;durP1;ratioP1;P1;durP2;ratioP2;P2;SDS_P1;SDS_P2;PMS_P1;PMS_P2;Temp;Humidity;BMP_temperature;BMP_pressure;BME280_temperature;BME280_humidity;BME280_pressure;Samples;Min_cycle;Max_cycle;Signal;HPM_P1;HPM_P2
2021/12/20 00:01:42;;;;;;;;;;;;;;;;;;5041550;28;1339;-86
2021/12/20 00:04:07;;;;;;;;;;;;;;;;;;5033063;28;1467;-86
2021/12/20 00:06:32;;;;;;;;;;;;;;;;;;5033141;28;1075;-85
2021/12/20 00:08:57;;;;;;;;;;;;;;;;;;5013642;28;1882;-85
2021/12/20 00:11:22;;;;;;;;;;;;;;;;;;5033724;28;1324;-85
2021/12/20 00:13:47;;;;;;;;;;;;;;;;;;5012316;28;1168;-84
2021/12/20 00:16:12;;;;;;;;;;;;;;;;;;5013856;28;928;-84
2021/12/20 00:18:38;;;;;;;;;;;;;;;;;;5046743;28;1645;-84
2021/12/20 00:21:03;;;;;;;;;;;;;;;;;;5032882;28;1418;-85
2021/12/20 00:23:28;;;;;;;;;;;;;;;;;;5033238;28;1603;-84
2021/12/20 00:25:53;;;;;;;;;;;;;;;;;;5021257;28;1133;-84
2021/12/20 00:28:18;;;;;;;;;;;;;;;;;;5042582;28;1890;-84
2021/12/20 00:30:43;;;;;;;;;;;;;;;;;;5049577;28;1549;-84
2021/12/20 00:33:08;;;;;;;;;;;;;;;;;;5032412;28;1343;-84
2021/12/20 00:35:33;;;;;;;;;;;;;;;;;;5032771;28;1407;-86
2021/12/20 00:40:42;;;;;;;;;;;;;;;;;;5033101;28;1288;-85
2021/12/20 00:43:07;;;;;;;;;;;;;;;;;;5031377;28;1744;-86
2021/12/20 00:45:32;;;;;;;;;;;;;;;;;;5033251;28;1384;-84
2021/12/20 00:47:57;;;;;;;;;;;;;;;;;;5048471;28;1965;-85
2021/12/20 00:50:22;;;;;;;;;;;;;;;;;;5033016;28;1578;-85
2021/12/20 00:52:47;;;;;;;;;;;;;;;;;;5031286;28;1622;-85
2021/12/20 00:55:15;;;;;;;;;;;;;;;;;;5031934;28;1226;-84
2021/12/20 00:57:40;;;;;;;;;;;;;;;;;;5022324;28;1243;-85
2021/12/20 01:00:06;;;;;;;;;;;;;;;;;;5038829;28;1360;-85
2021/12/20 01:02:31;;;;;;;;;;;;;;;;;;5037749;28;1462;-84
2021/12/20 01:04:56;;;;;;;;;;;;;;;;;;5035314;28;1880;-84
2021/12/20 01:07:21;;;;;;;;;;;;;;;;;;5035583;28;1645;-84
2021/12/20 01:09:46;;;;;;;;;;;;;;;;;;5026310;28;1891;-86
2021/12/20 01:12:17;;;;;;;;;;;;;;;;;;5022707;28;1546;-84
2021/12/20 01:14:43;;;;;;;;;;;;;;;;;;5025651;28;1357;-87
2021/12/20 01:17:08;;;;;;;;;;;;;;;;;;5027224;28;1380;-86
2021/12/20 01:19:33;;;;;;;;;;;;;;;;;;5032155;28;1363;-85
2021/12/20 01:21:58;;;;;;;;;;;;;;;;;;5032016;28;1717;-85
2021/12/20 01:24:23;;;;;;;;;;;;;;;;;;5019073;28;869;-85
2021/12/20 01:26:48;;;;;;;;;;;;;;;;;;5049511;28;1430;-85
2021/12/20 01:29:13;;;;;;;;;;;;;;;;;;5035939;28;1890;-84
2021/12/20 01:31:38;;;;;;;;;;;;;;;;;;5036411;28;1418;-84
2021/12/20 01:34:03;;;;;;;;;;;;;;;;;;5035912;28;833;-83
2021/12/20 01:36:28;;;;;;;;;;;;;;;;;;5034511;28;1278;-84
2021/12/20 01:38:53;;;;;;;;;;;;;;;;;;5034668;28;1278;-83
2021/12/20 01:41:18;;;;;;;;;;;;;;;;;;5035505;28;1463;-84
2021/12/20 01:43:44;;;;;;;;;;;;;;;;;;5035862;28;1189;-84
2021/12/20 01:46:09;;;;;;;;;;;;;;;;;;5035661;28;1473;-84
2021/12/20 01:48:36;;;;;;;;;;;;;;;;;;5034078;28;1955;-84
2021/12/20 01:53:32;;;;;;;;;;;;;;;;;;5037275;28;1324;-85
2021/12/20 01:55:57;;;;;;;;;;;;;;;;;;5034777;28;1317;-87
2021/12/20 01:58:22;;;;;;;;;;;;;;;;;;5035527;28;1708;-85
2021/12/20 02:03:31;;;;;;;;;;;;;;;;;;5034987;28;1452;-85
2021/12/20 02:05:59;;;;;;;;;;;;;;;;;;5035661;28;789;-85
2021/12/20 02:08:26;;;;;;;;;;;;;;;;;;5035021;28;1944;-85
2021/12/20 02:10:53;;;;;;;;;;;;;;;;;;5034188;28;1664;-86
2021/12/20 02:13:18;;;;;;;;;;;;;;;;;;5033782;28;1511;-85
2021/12/20 02:15:43;;;;;;;;;;;;;;;;;;5035214;28;868;-87
2021/12/20 02:18:08;;;;;;;;;;;;;;;;;;5034937;28;1327;-85
2021/12/20 02:20:34;;;;;;;;;;;;;;;;;;5052434;28;1688;-86
2021/12/20 02:22:59;;;;;;;;;;;;;;;;;;5039584;28;1338;-86
2021/12/20 02:25:24;;;;;;;;;;;;;;;;;;5030431;28;1408;-86
2021/12/20 02:27:49;;;;;;;;;;;;;;;;;;5030690;28;1248;-85
2021/12/20 02:30:38;;;;;;;;;;;;;;;;;;5033477;28;1890;-86
2021/12/20 02:38:27;;;;;;;;;;;;;;;;;;5031928;28;1665;-84
2021/12/20 02:40:52;;;;;;;;;;;;;;;;;;5034838;28;1044;-85
2021/12/20 02:43:18;;;;;;;;;;;;;;;;;;5033178;28;1721;-86
2021/12/20 02:45:44;;;;;;;;;;;;;;;;;;5027284;28;1182;-86
2021/12/20 02:48:09;;;;;;;;;;;;;;;;;;5032981;28;1902;-86
2021/12/20 02:50:34;;;;;;;;;;;;;;;;;;5033383;28;1356;-86
2021/12/20 02:52:59;;;;;;;;;;;;;;;;;;5033632;28;1403;-85
2021/12/20 02:55:24;;;;;;;;;;;;;;;;;;5034660;28;1730;-87
2021/12/20 02:57:49;;;;;;;;;;;;;;;;;;5034276;28;1450;-84
2021/12/20 03:00:14;;;;;;;;;;;;;;;;;;5042075;28;1518;-84
2021/12/20 03:02:39;;;;;;;;;;;;;;;;;;5034212;28;1422;-83
2021/12/20 03:05:04;;;;;;;;;;;;;;;;;;5034656;28;1365;-87
2021/12/20 03:07:37;;;;;;;;;;;;;;;;;;5033282;28;1405;-85
2021/12/20 03:10:03;;;;;;;;;;;;;;;;;;5034203;28;1953;-85
2021/12/20 03:12:30;;;;;;;;;;;;;;;;;;5032976;28;1602;-85
2021/12/20 03:15:01;;;;;;;;;;;;;;;;;;5020968;28;1467;-85
2021/12/20 03:17:26;;;;;;;;;;;;;;;;;;5032200;28;1702;-86
2021/12/20 03:19:51;;;;;;;;;;;;;;;;;;5038487;28;1641;-86
2021/12/20 03:22:17;;;;;;;;;;;;;;;;;;5038032;28;1600;-85
2021/12/20 03:24:42;;;;;;;;;;;;;;;;;;5033918;28;1161;-86
2021/12/20 03:27:07;;;;;;;;;;;;;;;;;;5031722;28;1732;-86
2021/12/20 03:29:32;;;;;;;;;;;;;;;;;;5033796;28;1898;-85
2021/12/20 03:31:57;;;;;;;;;;;;;;;;;;5034052;28;1395;-85
2021/12/20 03:34:22;;;;;;;;;;;;;;;;;;5032616;28;1451;-85
2021/12/20 03:36:47;;;;;;;;;;;;;;;;;;5034369;28;1157;-87
2021/12/20 03:39:12;;;;;;;;;;;;;;;;;;5048230;28;1677;-85
2021/12/20 03:41:38;;;;;;;;;;;;;;;;;;5014288;28;1067;-88
2021/12/20 03:44:03;;;;;;;;;;;;;;;;;;5039948;28;1400;-86
2021/12/20 03:46:36;;;;;;;;;;;;;;;;;;5017012;28;1788;-83
2021/12/20 03:49:01;;;;;;;;;;;;;;;;;;5019464;28;1902;-86
2021/12/20 03:51:26;;;;;;;;;;;;;;;;;;5024628;28;1407;-85
2021/12/20 03:53:51;;;;;;;;;;;;;;;;;;5028662;28;1649;-85
2021/12/20 03:56:17;;;;;;;;;;;;;;;;;;5040562;28;1356;-86
2021/12/20 03:58:42;;;;;;;;;;;;;;;;;;5032292;28;1381;-86
2021/12/20 04:01:07;;;;;;;;;;;;;;;;;;5031462;28;1357;-86
2021/12/20 04:03:34;;;;;;;;;;;;;;;;;;5042487;28;1610;-85
2021/12/20 04:05:59;;;;;;;;;;;;;;;;;;5032527;28;1655;-85
2021/12/20 04:08:24;;;;;;;;;;;;;;;;;;5033032;28;1890;-84
2021/12/20 04:10:50;;;;;;;;;;;;;;;;;;5026197;28;936;-85
2021/12/20 04:13:15;;;;;;;;;;;;;;;;;;5014113;28;1083;-87
2021/12/20 04:15:40;;;;;;;;;;;;;;;;;;5029394;28;1204;-87
2021/12/20 04:18:05;;;;;;;;;;;;;;;;;;5019762;28;1502;-85
2021/12/20 04:20:30;;;;;;;;;;;;;;;;;;5033630;28;814;-86
2021/12/20 04:22:55;;;;;;;;;;;;;;;;;;5032505;28;1256;-85
2021/12/20 04:25:20;;;;;;;;;;;;;;;;;;5033378;28;1068;-84
2021/12/20 04:27:45;;;;;;;;;;;;;;;;;;5033700;28;1208;-85
2021/12/20 04:30:11;;;;;;;;;;;;;;;;;;5033050;28;1935;-85
2021/12/20 04:32:36;;;;;;;;;;;;;;;;;;5032720;28;1490;-85
2021/12/20 04:35:01;;;;;;;;;;;;;;;;;;5032102;28;1387;-86
2021/12/20 04:37:26;;;;;;;;;;;;;;;;;;5034624;28;1319;-86
2021/12/20 04:39:51;;;;;;;;;;;;;;;;;;5035773;28;1199;-84
2021/12/20 04:42:18;;;;;;;;;;;;;;;;;;5037249;28;1079;-85
2021/12/20 04:44:43;;;;;;;;;;;;;;;;;;5036233;28;1303;-85
2021/12/20 04:47:08;;;;;;;;;;;;;;;;;;5035989;28;1682;-85
2021/12/20 04:49:33;;;;;;;;;;;;;;;;;;5039427;28;1918;-84
2021/12/20 04:51:58;;;;;;;;;;;;;;;;;;5055175;28;1398;-83
2021/12/20 04:54:24;;;;;;;;;;;;;;;;;;5037276;28;1724;-84
2021/12/20 04:56:49;;;;;;;;;;;;;;;;;;5036860;28;1419;-84
2021/12/20 04:59:14;;;;;;;;;;;;;;;;;;5039700;28;1728;-85
2021/12/20 05:01:39;;;;;;;;;;;;;;;;;;5041943;28;813;-87
2021/12/20 05:04:05;;;;;;;;;;;;;;;;;;5031730;28;1623;-85
2021/12/20 05:06:32;;;;;;;;;;;;;;;;;;5035626;28;1303;-86
2021/12/20 05:08:57;;;;;;;;;;;;;;;;;;5031656;28;1886;-86
2021/12/20 05:11:23;;;;;;;;;;;;;;;;;;5029759;28;1225;-85
2021/12/20 05:13:48;;;;;;;;;;;;;;;;;;5034612;28;1675;-84
2021/12/20 05:16:13;;;;;;;;;;;;;;;;;;5035621;28;1522;-85
2021/12/20 05:18:39;;;;;;;;;;;;;;;;;;5035856;28;1448;-85
2021/12/20 05:21:04;;;;;;;;;;;;;;;;;;5035190;28;1331;-85
2021/12/20 05:23:29;;;;;;;;;;;;;;;;;;5035128;28;1352;-84
2021/12/20 05:25:55;;;;;;;;;;;;;;;;;;5035019;28;1731;-83
2021/12/20 05:28:20;;;;;;;;;;;;;;;;;;5043054;22;3799;-84
2021/12/20 05:30:49;;;;;;;;;;;;;;;;;;5078050;28;1497;-85
2021/12/20 05:33:14;;;;;;;;;;;;;;;;;;5076692;28;1277;-84
2021/12/20 05:35:39;;;;;;;;;;;;;;;;;;5078939;28;1397;-86
2021/12/20 05:38:04;;;;;;;;;;;;;;;;;;5073108;28;1501;-85
2021/12/20 05:40:29;;;;;;;;;;;;;;;;;;5042285;28;1497;-85
2021/12/20 05:42:54;;;;;;;;;;;;;;;;;;5048419;28;1615;-86
2021/12/20 05:45:19;;;;;;;;;;;;;;;;;;5057487;28;1294;-86
2021/12/20 05:47:44;;;;;;;;;;;;;;;;;;5057699;28;1335;-87
2021/12/20 05:50:10;;;;;;;;;;;;;;;;;;5055932;28;1875;-87
2021/12/20 05:52:35;;;;;;;;;;;;;;;;;;5058667;28;845;-84
2021/12/20 05:55:01;;;;;;;;;;;;;;;;;;5050474;28;1631;-86
2021/12/20 05:57:26;;;;;;;;;;;;;;;;;;5048902;28;1622;-86
2021/12/20 05:59:51;;;;;;;;;;;;;;;;;;5058161;28;1326;-86
2021/12/20 06:02:16;;;;;;;;;;;;;;;;;;5060759;28;806;-86
2021/12/20 06:04:41;;;;;;;;;;;;;;;;;;5056809;28;1152;-86
2021/12/20 06:07:08;;;;;;;;;;;;;;;;;;5056922;28;1169;-85
2021/12/20 06:09:33;;;;;;;;;;;;;;;;;;5055968;28;1885;-84
2021/12/20 06:11:59;;;;;;;;;;;;;;;;;;5056218;28;1195;-84
2021/12/20 06:14:24;;;;;;;;;;;;;;;;;;5058079;28;1641;-84
2021/12/20 06:16:49;;;;;;;;;;;;;;;;;;5056884;28;1606;-87
2021/12/20 06:19:14;;;;;;;;;;;;;;;;;;5056365;28;1186;-86
2021/12/20 06:21:39;;;;;;;;;;;;;;;;;;5057977;28;888;-86
2021/12/20 06:24:05;;;;;;;;;;;;;;;;;;5058162;28;995;-86
2021/12/20 06:26:30;;;;;;;;;;;;;;;;;;5057091;28;1274;-86
2021/12/20 06:28:55;;;;;;;;;;;;;;;;;;5057347;28;1985;-86
2021/12/20 06:31:20;;;;;;;;;;;;;;;;;;5057228;28;1479;-86
2021/12/20 06:33:45;;;;;;;;;;;;;;;;;;5057476;28;1188;-85
2021/12/20 06:36:10;;;;;;;;;;;;;;;;;;5057722;28;1267;-87
2021/12/20 06:38:35;;;;;;;;;;;;;;;;;;5057347;28;1160;-86
2021/12/20 06:41:00;;;;;;;;;;;;;;;;;;5058123;28;1431;-85
2021/12/20 06:43:25;;;;;;;;;;;;;;;;;;5058601;28;1298;-87
2021/12/20 06:45:51;;;;;;;;;;;;;;;;;;5058220;28;1191;-84
2021/12/20 06:48:16;;;;;;;;;;;;;;;;;;5062632;28;1951;-87
2021/12/20 06:50:41;;;;;;;;;;;;;;;;;;5064497;28;1194;-85
2021/12/20 06:53:06;;;;;;;;;;;;;;;;;;5059666;28;1268;-86
2021/12/20 06:55:31;;;;;;;;;;;;;;;;;;5066777;28;1318;-86
2021/12/20 06:57:56;;;;;;;;;;;;;;;;;;5065896;28;1741;-86
2021/12/20 07:00:23;;;;;;;;;;;;;;;;;;5035577;28;1227;-86
2021/12/20 07:02:48;;;;;;;;;;;;;;;;;;5036217;28;1199;-85
2021/12/20 07:05:13;;;;;;;;;;;;;;;;;;5037300;28;834;-86
2021/12/20 07:07:39;;;;;;;;;;;;;;;;;;5035312;28;1298;-87
2021/12/20 07:10:05;;;;;;;;;;;;;;;;;;5036435;28;1941;-87
2021/12/20 07:12:32;;;;;;;;;;;;;;;;;;5036950;28;860;-85
2021/12/20 07:14:57;;;;;;;;;;;;;;;;;;5038173;28;833;-84
2021/12/20 07:17:22;;;;;;;;;;;;;;;;;;5039201;28;798;-84
2021/12/20 07:19:47;;;;;;;;;;;;;;;;;;5037577;28;1354;-86
2021/12/20 07:22:12;;;;;;;;;;;;;;;;;;5039341;28;1081;-84
2021/12/20 07:24:37;;;;;;;;;;;;;;;;;;5038900;28;1299;-84
2021/12/20 07:27:03;;;;;;;;;;;;;;;;;;5038353;28;1224;-85
2021/12/20 07:29:28;;;;;;;;;;;;;;;;;;5038044;28;1902;-85
2021/12/20 07:31:53;;;;;;;;;;;;;;;;;;5038553;28;1215;-84
2021/12/20 07:34:18;;;;;;;;;;;;;;;;;;5038649;28;1277;-85
2021/12/20 07:36:43;;;;;;;;;;;;;;;;;;5038112;28;1307;-86
2021/12/20 07:39:08;;;;;;;;;;;;;;;;;;5040460;28;1364;-85
2021/12/20 07:41:33;;;;;;;;;;;;;;;;;;5041799;28;1232;-85
2021/12/20 07:43:58;;;;;;;;;;;;;;;;;;5042448;28;797;-85
2021/12/20 07:46:23;;;;;;;;;;;;;;;;;;5040939;28;1346;-85
2021/12/20 07:48:49;;;;;;;;;;;;;;;;;;5041974;28;1874;-85
2021/12/20 07:51:14;;;;;;;;;;;;;;;;;;5040975;28;1279;-85
2021/12/20 07:53:39;;;;;;;;;;;;;;;;;;5044524;28;996;-85
2021/12/20 07:56:05;;;;;;;;;;;;;;;;;;5044834;28;1054;-86
2021/12/20 07:58:30;;;;;;;;;;;;;;;;;;5044292;28;1333;-84
2021/12/20 08:00:55;;;;;;;;;;;;;;;;;;5037611;28;1058;-85
2021/12/20 08:03:20;;;;;;;;;;;;;;;;;;5038348;28;865;-85
2021/12/20 08:05:45;;;;;;;;;;;;;;;;;;5038142;28;774;-84
2021/12/20 08:08:10;;;;;;;;;;;;;;;;;;5036489;28;1867;-85
2021/12/20 08:10:35;;;;;;;;;;;;;;;;;;5036806;28;1230;-85
2021/12/20 08:13:01;;;;;;;;;;;;;;;;;;5035772;28;1334;-84
2021/12/20 08:15:29;;;;;;;;;;;;;;;;;;5036975;28;1330;-85
2021/12/20 08:17:54;;;;;;;;;;;;;;;;;;5036751;28;1302;-84
2021/12/20 08:20:19;;;;;;;;;;;;;;;;;;5036432;28;1214;-84
2021/12/20 08:22:44;;;;;;;;;;;;;;;;;;5036407;28;1172;-85
2021/12/20 08:25:09;;;;;;;;;;;;;;;;;;5038016;28;814;-84
2021/12/20 08:27:34;;;;;;;;;;;;;;;;;;5035345;28;1231;-84
2021/12/20 08:29:59;;;;;;;;;;;;;;;;;;5034891;28;1961;-84
2021/12/20 08:32:24;;;;;;;;;;;;;;;;;;5035490;28;1231;-84
2021/12/20 08:34:49;;;;;;;;;;;;;;;;;;5036489;28;996;-84
2021/12/20 08:37:14;;;;;;;;;;;;;;;;;;5043398;28;2183;-84
2021/12/20 08:39:39;;;;;;;;;;;;;;;;;;5055896;28;1173;-85
2021/12/20 08:42:05;;;;;;;;;;;;;;;;;;5056223;28;841;-83
2021/12/20 08:44:30;;;;;;;;;;;;;;;;;;5057305;28;900;-84
2021/12/20 08:46:55;;;;;;;;;;;;;;;;;;5054645;28;1211;-84
2021/12/20 08:49:20;;;;;;;;;;;;;;;;;;5055683;28;1957;-84
2021/12/20 08:51:45;;;;;;;;;;;;;;;;;;5054451;28;1679;-84
2021/12/20 08:54:10;;;;;;;;;;;;;;;;;;5055151;28;1313;-84
2021/12/20 08:56:35;;;;;;;;;;;;;;;;;;5055001;28;1352;-87
2021/12/20 08:59:00;;;;;;;;;;;;;;;;;;5053474;28;1243;-86
2021/12/20 09:01:25;;;;;;;;;;;;;;;;;;5055443;28;1074;-87
2021/12/20 09:03:50;;;;;;;;;;;;;;;;;;5054140;28;1341;-85
2021/12/20 09:06:17;;;;;;;;;;;;;;;;;;5054426;28;1322;-84
2021/12/20 09:08:42;;;;;;;;;;;;;;;;;;5054263;28;1947;-85
2021/12/20 09:11:07;;;;;;;;;;;;;;;;;;5055891;28;782;-85
2021/12/20 09:13:32;;;;;;;;;;;;;;;;;;5054292;28;1183;-85
2021/12/20 09:15:59;;;;;;;;;;;;;;;;;;5055020;28;1314;-85
2021/12/20 09:18:25;;;;;;;;;;;;;;;;;;5054307;28;1303;-85
2021/12/20 09:20:50;;;;;;;;;;;;;;;;;;5055724;28;856;-86
2021/12/20 09:23:17;;;;;;;;;;;;;;;;;;5054180;28;1344;-87
2021/12/20 09:25:43;;;;;;;;;;;;;;;;;;5059709;28;841;-86
2021/12/20 09:28:09;;;;;;;;;;;;;;;;;;5057586;28;1314;-86
2021/12/20 09:30:34;;;;;;;;;;;;;;;;;;5058016;28;1955;-87
2021/12/20 09:32:59;;;;;;;;;;;;;;;;;;5059392;28;1074;-87
2021/12/20 09:35:24;;;;;;;;;;;;;;;;;;5057770;28;1155;-85
2021/12/20 09:37:51;;;;;;;;;;;;;;;;;;5058963;28;1313;-85
2021/12/20 09:40:16;;;;;;;;;;;;;;;;;;5059207;28;1227;-86
2021/12/20 09:42:41;;;;;;;;;;;;;;;;;;5059023;28;1251;-85
2021/12/20 09:45:06;;;;;;;;;;;;;;;;;;5059040;28;1303;-86
2021/12/20 09:47:31;;;;;;;;;;;;;;;;;;5059458;28;1207;-86
2021/12/20 09:49:56;;;;;;;;;;;;;;;;;;5059776;28;1871;-86
2021/12/20 09:52:22;;;;;;;;;;;;;;;;;;5061304;28;1023;-86
2021/12/20 09:54:47;;;;;;;;;;;;;;;;;;5057502;28;1374;-85
2021/12/20 09:57:12;;;;;;;;;;;;;;;;;;5057774;28;1254;-85
2021/12/20 09:59:37;;;;;;;;;;;;;;;;;;5057824;28;1223;-84
2021/12/20 10:02:02;;;;;;;;;;;;;;;;;;5057294;28;1389;-84
2021/12/20 10:04:27;;;;;;;;;;;;;;;;;;5056309;28;1230;-85
2021/12/20 10:06:53;;;;;;;;;;;;;;;;;;5056455;28;1219;-85
2021/12/20 10:09:25;;;;;;;;;;;;;;;;;;5057070;28;1878;-85
2021/12/20 10:11:50;;;;;;;;;;;;;;;;;;5056040;28;1326;-85
2021/12/20 10:14:16;;;;;;;;;;;;;;;;;;5057208;28;1030;-84
2021/12/20 10:16:41;;;;;;;;;;;;;;;;;;5056816;28;1418;-84
2021/12/20 10:19:09;;;;;;;;;;;;;;;;;;5056836;28;1255;-85
2021/12/20 10:21:34;;;;;;;;;;;;;;;;;;5057331;28;809;-86
2021/12/20 10:23:59;;;;;;;;;;;;;;;;;;5056024;28;1334;-84
2021/12/20 10:26:24;;;;;;;;;;;;;;;;;;5057175;28;1254;-85
2021/12/20 10:28:51;;;;;;;;;;;;;;;;;;5056469;28;1970;-86
2021/12/20 10:31:16;;;;;;;;;;;;;;;;;;5057218;28;1228;-87
2021/12/20 10:33:41;;;;;;;;;;;;;;;;;;5057167;28;1207;-87
2021/12/20 10:36:06;;;;;;;;;;;;;;;;;;5056525;28;1199;-84
2021/12/20 10:38:31;;;;;;;;;;;;;;;;;;5057715;28;1210;-85
2021/12/20 10:40:56;;;;;;;;;;;;;;;;;;5057623;28;1327;-84
2021/12/20 10:43:22;;;;;;;;;;;;;;;;;;5056633;28;1342;-84
2021/12/20 10:45:47;;;;;;;;;;;;;;;;;;5058815;28;825;-84
2021/12/20 10:48:12;;;;;;;;;;;;;;;;;;5056717;28;1878;-84
2021/12/20 10:50:42;;;;;;;;;;;;;;;;;;5056899;28;1191;-84
2021/12/20 10:53:07;;;;;;;;;;;;;;;;;;5056906;28;1203;-85
2021/12/20 10:55:33;;;;;;;;;;;;;;;;;;5056440;28;1179;-85
2021/12/20 10:57:58;;;;;;;;;;;;;;;;;;5056852;28;1323;-85
2021/12/20 11:00:23;;;;;;;;;;;;;;;;;;5056357;28;1070;-85
2021/12/20 11:03:14;;;;;;;;;;;;;;;;;;5056438;28;1489;-85
2021/12/20 11:05:39;;;;;;;;;;;;;;;;;;5057619;28;1148;-85
2021/12/20 11:10:47;;;;;;;;;;;;;;;;;;5057480;28;627;-85
2021/12/20 11:13:13;;;;;;;;;;;;;;;;;;5057618;28;1136;-85
2021/12/20 11:15:38;;;;;;;;;;;;;;;;;;5057448;28;1079;-85
2021/12/20 11:18:03;;;;;;;;;;;;;;;;;;5055579;28;1201;-84
2021/12/20 11:20:28;;;;;;;;;;;;;;;;;;5057489;28;1026;-85
2021/12/20 11:22:53;;;;;;;;;;;;;;;;;;5056787;28;1234;-85
2021/12/20 11:25:18;;;;;;;;;;;;;;;;;;5057892;28;1094;-85
2021/12/20 11:27:46;;;;;;;;;;;;;;;;;;5057482;28;1192;-86
2021/12/20 11:30:11;;;;;;;;;;;;;;;;;;5057909;28;1957;-86
2021/12/20 11:32:36;;;;;;;;;;;;;;;;;;5057232;28;1187;-86
2021/12/20 11:35:01;;;;;;;;;;;;;;;;;;5057117;28;1347;-86
2021/12/20 11:37:26;;;;;;;;;;;;;;;;;;5057492;28;1270;-86
2021/12/20 11:39:51;;;;;;;;;;;;;;;;;;5058517;28;1213;-86
2021/12/20 11:42:16;;;;;;;;;;;;;;;;;;5057126;28;1254;-87
2021/12/20 11:44:41;;;;;;;;;;;;;;;;;;5062767;28;850;-85
2021/12/20 11:47:06;;;;;;;;;;;;;;;;;;5059112;28;1294;-85
2021/12/20 11:49:31;;;;;;;;;;;;;;;;;;5058182;28;1938;-85
2021/12/20 11:51:56;;;;;;;;;;;;;;;;;;5058336;28;793;-85
2021/12/20 11:54:21;;;;;;;;;;;;;;;;;;5056773;28;1183;-86
2021/12/20 11:56:46;;;;;;;;;;;;;;;;;;5057495;28;1328;-85
2021/12/20 11:59:11;;;;;;;;;;;;;;;;;;5056587;28;1199;-85
2021/12/20 12:01:36;;;;;;;;;;;;;;;;;;5056473;28;1238;-86
2021/12/20 12:04:01;;;;;;;;;;;;;;;;;;5055689;28;1351;-85
2021/12/20 12:06:27;;;;;;;;;;;;;;;;;;5056294;28;1383;-85
2021/12/20 12:08:52;;;;;;;;;;;;;;;;;;5056722;28;1957;-84
2021/12/20 12:11:17;;;;;;;;;;;;;;;;;;5056946;28;1247;-85
2021/12/20 12:13:43;;;;;;;;;;;;;;;;;;5057177;28;1215;-85
2021/12/20 12:16:26;;;;;;;;;;;;;;;;;;5057227;28;1365;-85
2021/12/20 12:18:51;;;;;;;;;;;;;;;;;;5056440;28;1353;-84
2021/12/20 12:21:16;;;;;;;;;;;;;;;;;;5056665;28;1241;-85
2021/12/20 12:23:41;;;;;;;;;;;;;;;;;;5057172;28;1284;-86
2021/12/20 12:28:33;;;;;;;;;;;;;;;;;;5059670;28;1867;-89
2021/12/20 12:30:58;;;;;;;;;;;;;;;;;;5049131;28;1160;-87
2021/12/20 12:33:24;;;;;;;;;;;;;;;;;;5048064;28;1289;-86
2021/12/20 12:35:52;;;;;;;;;;;;;;;;;;5048091;28;1361;-90
2021/12/20 12:38:17;;;;;;;;;;;;;;;;;;5061143;28;836;-88
2021/12/20 12:40:42;;;;;;;;;;;;;;;;;;5056119;28;840;-89
2021/12/20 12:43:07;;;;;;;;;;;;;;;;;;5063134;28;1326;-88
2021/12/20 12:45:32;;;;;;;;;;;;;;;;;;5056335;28;1254;-88
2021/12/20 12:47:57;;;;;;;;;;;;;;;;;;5056718;28;1262;-88
2021/12/20 12:50:22;;;;;;;;;;;;;;;;;;5058866;28;1957;-90
2021/12/20 12:52:50;;;;;;;;;;;;;;;;;;5055663;28;1020;-89
2021/12/20 12:55:15;;;;;;;;;;;;;;;;;;5055527;28;919;-88
2021/12/20 12:57:40;;;;;;;;;;;;;;;;;;5056791;28;1286;-87
2021/12/20 13:00:05;;;;;;;;;;;;;;;;;;5056417;28;1588;-87
2021/12/20 13:02:30;;;;;;;;;;;;;;;;;;5038580;28;1321;-88
2021/12/20 13:04:55;;;;;;;;;;;;;;;;;;5038549;28;1268;-88
2021/12/20 13:07:20;;;;;;;;;;;;;;;;;;5038588;28;1347;-87
2021/12/20 13:09:46;;;;;;;;;;;;;;;;;;5038049;28;1929;-88
2021/12/20 13:12:18;;;;;;;;;;;;;;;;;;5038612;28;1458;-88
2021/12/20 13:14:43;;;;;;;;;;;;;;;;;;5038100;28;1211;-87
2021/12/20 13:17:08;;;;;;;;;;;;;;;;;;5038360;28;1209;-88
2021/12/20 13:19:35;;;;;;;;;;;;;;;;;;5040296;28;1272;-88
2021/12/20 13:22:00;;;;;;;;;;;;;;;;;;5038994;28;1245;-88
2021/12/20 13:24:27;;;;;;;;;;;;;;;;;;5038916;28;1341;-88
2021/12/20 13:26:52;;;;;;;;;;;;;;;;;;5038798;28;1230;-88
2021/12/20 13:29:17;;;;;;;;;;;;;;;;;;5040126;28;1894;-88
2021/12/20 13:31:43;;;;;;;;;;;;;;;;;;5038630;28;1297;-87
2021/12/20 13:34:11;;;;;;;;;;;;;;;;;;5040666;28;828;-87
2021/12/20 13:36:36;;;;;;;;;;;;;;;;;;5038690;28;1234;-89
2021/12/20 13:39:01;;;;;;;;;;;;;;;;;;5039764;28;813;-87
2021/12/20 13:41:26;;;;;;;;;;;;;;;;;;5038392;28;1206;-87
2021/12/20 13:43:54;;;;;;;;;;;;;;;;;;5038249;28;1361;-88
2021/12/20 13:46:25;;;;;;;;;;;;;;;;;;5037500;28;1282;-87
2021/12/20 13:48:50;;;;;;;;;;;;;;;;;;5038897;28;1920;-88
2021/12/20 13:51:15;;;;;;;;;;;;;;;;;;5040255;28;1210;-87
2021/12/20 13:53:40;;;;;;;;;;;;;;;;;;5038575;28;1277;-88
2021/12/20 13:56:06;;;;;;;;;;;;;;;;;;5039790;28;1278;-86
2021/12/20 13:58:31;;;;;;;;;;;;;;;;;;5037982;28;1533;-88
2021/12/20 14:00:56;;;;;;;;;;;;;;;;;;5036955;28;1299;-88
2021/12/20 14:03:21;;;;;;;;;;;;;;;;;;5037224;28;1180;-90
2021/12/20 14:05:47;;;;;;;;;;;;;;;;;;5037653;28;1294;-90
2021/12/20 14:08:12;;;;;;;;;;;;;;;;;;5041705;28;1656;-89
2021/12/20 14:10:37;;;;;;;;;;;;;;;;;;5041576;28;1957;-89
2021/12/20 14:13:02;;;;;;;;;;;;;;;;;;5055278;28;1758;-89
2021/12/20 14:15:27;;;;;;;;;;;;;;;;;;5048788;28;1445;-88
2021/12/20 14:17:52;;;;;;;;;;;;;;;;;;5037599;28;1415;-89
2021/12/20 14:20:17;;;;;;;;;;;;;;;;;;5047435;28;1701;-87
2021/12/20 14:22:42;;;;;;;;;;;;;;;;;;5058910;28;1210;-87
2021/12/20 14:25:07;;;;;;;;;;;;;;;;;;5058296;28;1496;-87
2021/12/20 14:27:32;;;;;;;;;;;;;;;;;;5058722;28;1278;-87
2021/12/20 14:29:57;;;;;;;;;;;;;;;;;;5056809;28;1910;-89
2021/12/20 14:32:25;;;;;;;;;;;;;;;;;;5056210;28;1341;-88
2021/12/20 14:34:51;;;;;;;;;;;;;;;;;;5054976;28;1724;-87
2021/12/20 14:37:18;;;;;;;;;;;;;;;;;;5056016;28;1691;-88
2021/12/20 14:39:43;;;;;;;;;;;;;;;;;;5055445;28;1602;-87
2021/12/20 14:42:08;;;;;;;;;;;;;;;;;;5055057;28;1522;-88
2021/12/20 14:44:42;;;;;;;;;;;;;;;;;;5050089;28;1573;-89
2021/12/20 14:47:14;;;;;;;;;;;;;;;;;;5063227;28;1803;-88
2021/12/20 14:49:45;;;;;;;;;;;;;;;;;;5059067;28;1945;-87
2021/12/20 14:52:10;;;;;;;;;;;;;;;;;;5071268;28;1640;-87
2021/12/20 14:54:35;;;;;;;;;;;;;;;;;;5073894;28;1910;-88
2021/12/20 14:57:00;;;;;;;;;;;;;;;;;;5063031;28;1774;-89
2021/12/20 14:59:25;;;;;;;;;;;;;;;;;;5056760;28;1515;-86
2021/12/20 15:01:50;;;;;;;;;;;;;;;;;;5058544;28;817;-87
2021/12/20 15:04:15;;;;;;;;;;;;;;;;;;5057033;28;1788;-87
2021/12/20 15:06:40;;;;;;;;;;;;;;;;;;5042579;28;1545;-88
2021/12/20 15:09:05;;;;;;;;;;;;;;;;;;5040688;28;1886;-87
2021/12/20 15:11:30;;;;;;;;;;;;;;;;;;5048428;28;1627;-87
2021/12/20 15:13:56;;;;;;;;;;;;;;;;;;5057534;28;1223;-88
2021/12/20 15:16:21;;;;;;;;;;;;;;;;;;5061199;28;1862;-89
2021/12/20 15:18:46;;;;;;;;;;;;;;;;;;5057968;28;1163;-88
2021/12/20 15:21:11;;;;;;;;;;;;;;;;;;5060011;28;904;-88
2021/12/20 15:23:36;;;;;;;;;;;;;;;;;;5058089;28;1173;-88
2021/12/20 15:26:01;;;;;;;;;;;;;;;;;;5054677;28;1582;-88
2021/12/20 15:28:26;;;;;;;;;;;;;;;;;;5050218;28;1957;-88
2021/12/20 15:30:52;;;;;;;;;;;;;;;;;;5061714;28;1692;-88
2021/12/20 15:33:17;;;;;;;;;;;;;;;;;;5056406;28;1605;-88
2021/12/20 15:35:42;;;;;;;;;;;;;;;;;;5051628;28;1220;-86
2021/12/20 15:38:07;;;;;;;;;;;;;;;;;;5056953;28;1430;-90
2021/12/20 15:40:32;;;;;;;;;;;;;;;;;;5041719;28;1668;-86
2021/12/20 15:42:59;;;;;;;;;;;;;;;;;;5050962;28;1612;-90
2021/12/20 15:45:24;;;;;;;;;;;;;;;;;;5054578;28;1392;-89
2021/12/20 15:47:49;;;;;;;;;;;;;;;;;;5055531;28;1304;-86
2021/12/20 15:50:14;;;;;;;;;;;;;;;;;;5055489;28;1898;-87
2021/12/20 15:52:40;;;;;;;;;;;;;;;;;;5056418;28;1867;-87
2021/12/20 15:55:05;;;;;;;;;;;;;;;;;;5056874;28;1702;-89
2021/12/20 15:57:30;;;;;;;;;;;;;;;;;;5056531;28;1204;-87
2021/12/20 15:59:55;;;;;;;;;;;;;;;;;;5055403;28;1217;-88
2021/12/20 16:02:20;;;;;;;;;;;;;;;;;;5057994;28;1529;-88
2021/12/20 16:04:45;;;;;;;;;;;;;;;;;;5053582;28;1494;-87
2021/12/20 16:07:10;;;;;;;;;;;;;;;;;;5055333;28;1544;-86
2021/12/20 16:09:35;;;;;;;;;;;;;;;;;;5055716;28;1906;-88
2021/12/20 16:12:00;;;;;;;;;;;;;;;;;;5051836;28;2018;-87
2021/12/20 16:14:28;;;;;;;;;;;;;;;;;;5055445;28;1587;-90
2021/12/20 16:16:53;;;;;;;;;;;;;;;;;;5053062;28;1364;-90
2021/12/20 16:19:18;;;;;;;;;;;;;;;;;;5057876;28;1376;-87
2021/12/20 16:21:43;;;;;;;;;;;;;;;;;;5058955;28;1124;-87
2021/12/20 16:24:08;;;;;;;;;;;;;;;;;;5055814;28;1792;-86
2021/12/20 16:26:33;;;;;;;;;;;;;;;;;;5055364;28;1312;-86
2021/12/20 16:28:58;;;;;;;;;;;;;;;;;;5055376;28;1874;-88
2021/12/20 16:31:23;;;;;;;;;;;;;;;;;;5054784;28;1187;-86
2021/12/20 16:33:48;;;;;;;;;;;;;;;;;;5056649;28;1292;-89
2021/12/20 16:36:13;;;;;;;;;;;;;;;;;;5058826;28;1276;-87
2021/12/20 16:38:39;;;;;;;;;;;;;;;;;;5071950;28;1555;-87
2021/12/20 16:41:04;;;;;;;;;;;;;;;;;;5055551;28;1438;-85
2021/12/20 16:43:30;;;;;;;;;;;;;;;;;;5059671;28;1786;-86
2021/12/20 16:45:56;;;;;;;;;;;;;;;;;;5059860;28;1490;-88
2021/12/20 16:48:23;;;;;;;;;;;;;;;;;;5059756;28;1272;-85
2021/12/20 16:50:48;;;;;;;;;;;;;;;;;;5059162;28;1890;-86
2021/12/20 16:53:13;;;;;;;;;;;;;;;;;;5059822;28;1275;-87
2021/12/20 16:55:38;;;;;;;;;;;;;;;;;;5060138;28;1316;-87
2021/12/20 16:58:03;;;;;;;;;;;;;;;;;;5056593;28;1531;-87
2021/12/20 17:00:30;;;;;;;;;;;;;;;;;;5046593;28;1203;-87
2021/12/20 17:03:01;;;;;;;;;;;;;;;;;;5052974;28;1784;-86
2021/12/20 17:08:29;;;;;;;;;;;;;;;;;;5012450;28;1948;-86
2021/12/20 17:10:54;;;;;;;;;;;;;;;;;;4986433;28;1517;-86
2021/12/20 17:13:21;;;;;;;;;;;;;;;;;;5016342;28;1801;-87
2021/12/20 17:15:46;;;;;;;;;;;;;;;;;;5059566;28;1684;-88